createdAt,value
2018-07-01T00:00:31.657Z,0.00
2018-07-01T00:01:31.622Z,0.00
2018-07-01T00:02:31.574Z,0.00
2018-07-01T00:03:31.533Z,0.00
2018-07-01T00:04:31.514Z,0.00
2018-07-01T00:05:31.453Z,0.00
2018-07-01T00:06:31.422Z,0.00
2018-07-01T00:07:31.375Z,0.00
2018-07-01T00:08:31.369Z,0.00
2018-07-01T00:09:31.290Z,0.00
2018-07-01T00:10:31.257Z,0.00
2018-07-01T00:11:31.212Z,0.00
2018-07-01T00:12:31.172Z,0.00
2018-07-01T00:13:31.136Z,0.00
2018-07-01T00:14:31.207Z,0.00
2018-07-01T00:15:31.059Z,0.00
2018-07-01T00:16:31.013Z,0.00
2018-07-01T00:17:30.967Z,0.00
2018-07-01T00:18:30.928Z,0.00
2018-07-01T00:19:30.884Z,0.00
2018-07-01T00:20:30.848Z,0.00
2018-07-01T00:21:30.822Z,0.00
2018-07-01T00:22:30.778Z,0.00
2018-07-01T00:23:30.747Z,0.00
2018-07-01T00:24:30.691Z,0.00
2018-07-01T00:25:30.639Z,0.00
2018-07-01T00:26:30.613Z,0.00
2018-07-01T00:27:30.558Z,0.00
2018-07-01T00:28:30.519Z,0.00
2018-07-01T00:29:30.502Z,0.00
2018-07-01T00:30:30.449Z,0.00
2018-07-01T00:31:30.408Z,0.00
2018-07-01T00:32:30.360Z,0.00
2018-07-01T00:33:30.316Z,0.00
2018-07-01T00:34:30.279Z,0.00
2018-07-01T00:35:30.234Z,0.00
2018-07-01T00:36:30.194Z,0.00
2018-07-01T00:37:30.155Z,0.00
2018-07-01T00:38:30.112Z,0.00
2018-07-01T00:39:30.083Z,0.00
2018-07-01T00:40:30.038Z,0.00
2018-07-01T00:41:29.992Z,0.00
2018-07-01T00:42:29.953Z,0.00
2018-07-01T00:43:29.912Z,0.00
2018-07-01T00:44:29.868Z,0.00
2018-07-01T00:45:29.835Z,0.00
2018-07-01T00:46:29.785Z,0.00
2018-07-01T00:47:29.745Z,0.00
2018-07-01T00:48:29.705Z,0.00
2018-07-01T00:49:29.660Z,0.00
2018-07-01T00:50:29.620Z,0.00
2018-07-01T00:51:29.580Z,0.00
2018-07-01T00:52:29.568Z,0.00
2018-07-01T00:53:29.496Z,0.00
2018-07-01T00:54:29.461Z,0.00
2018-07-01T00:55:29.418Z,0.00
2018-07-01T00:56:29.374Z,0.00
2018-07-01T00:57:29.342Z,0.00
2018-07-01T00:58:29.296Z,0.00
2018-07-01T00:59:29.252Z,0.00
2018-07-01T01:00:29.793Z,0.00
2018-07-01T01:01:29.179Z,0.00
2018-07-01T01:02:29.134Z,0.00
2018-07-01T01:03:29.088Z,0.00
2018-07-01T01:04:29.047Z,0.00
2018-07-01T01:05:29.023Z,0.00
2018-07-01T01:06:28.975Z,0.00
2018-07-01T01:07:28.928Z,0.00
2018-07-01T01:08:28.898Z,0.00
2018-07-01T01:09:28.842Z,0.00
2018-07-01T01:10:28.818Z,0.00
2018-07-01T01:11:28.828Z,0.00
2018-07-01T01:12:28.720Z,0.00
2018-07-01T01:13:28.677Z,0.00
2018-07-01T01:14:28.637Z,0.00
2018-07-01T01:15:28.613Z,0.00
2018-07-01T01:16:28.559Z,0.00
2018-07-01T01:17:28.516Z,0.00
2018-07-01T01:18:28.479Z,0.00
2018-07-01T01:19:28.430Z,0.00
2018-07-01T01:20:28.389Z,0.00
2018-07-01T01:21:28.361Z,0.00
2018-07-01T01:22:28.311Z,0.00
2018-07-01T01:23:28.265Z,0.00
2018-07-01T01:24:28.229Z,0.00
2018-07-01T01:25:28.190Z,0.00
2018-07-01T01:26:28.175Z,0.00
2018-07-01T01:27:28.101Z,0.00
2018-07-01T01:28:28.067Z,0.00
2018-07-01T01:29:28.035Z,0.00
2018-07-01T01:30:27.978Z,0.00
2018-07-01T01:31:27.969Z,0.00
2018-07-01T01:32:27.901Z,0.00
2018-07-01T01:33:27.857Z,0.00
2018-07-01T01:34:27.814Z,0.00
2018-07-01T01:35:27.772Z,0.00
2018-07-01T01:36:27.729Z,0.00
2018-07-01T01:37:27.690Z,0.00
2018-07-01T01:38:27.793Z,0.00
2018-07-01T01:39:27.606Z,0.00
2018-07-01T01:40:27.570Z,0.00
2018-07-01T01:41:27.524Z,0.00
2018-07-01T01:42:27.485Z,0.00
2018-07-01T01:43:27.463Z,0.00
2018-07-01T01:44:27.403Z,0.00
2018-07-01T01:45:27.359Z,0.00
2018-07-01T01:46:27.318Z,0.00
2018-07-01T01:47:27.276Z,0.00
2018-07-01T01:48:27.236Z,0.00
2018-07-01T01:49:27.282Z,0.00
2018-07-01T01:50:27.151Z,0.00
2018-07-01T01:51:27.219Z,0.00
2018-07-01T01:52:27.072Z,0.00
2018-07-01T01:53:27.029Z,0.00
2018-07-01T01:54:26.986Z,0.00
2018-07-01T01:55:26.946Z,0.00
2018-07-01T01:56:26.904Z,0.00
2018-07-01T01:57:26.863Z,0.00
2018-07-01T01:58:27.168Z,0.00
2018-07-01T01:59:27.885Z,0.00
2018-07-01T02:00:26.743Z,0.00
2018-07-01T02:01:26.699Z,0.00
2018-07-01T02:02:26.656Z,0.00
2018-07-01T02:03:26.979Z,0.00
2018-07-01T02:04:26.803Z,0.00
2018-07-01T02:05:26.651Z,0.00
2018-07-01T02:06:26.599Z,0.00
2018-07-01T02:07:26.460Z,0.00
2018-07-01T02:08:26.407Z,0.00
2018-07-01T02:09:26.366Z,0.00
2018-07-01T02:10:26.344Z,0.00
2018-07-01T02:11:26.283Z,0.00
2018-07-01T02:12:26.250Z,0.00
2018-07-01T02:13:26.197Z,0.00
2018-07-01T02:14:26.216Z,0.00
2018-07-01T02:15:26.115Z,0.00
2018-07-01T02:16:26.077Z,0.00
2018-07-01T02:17:26.032Z,0.00
2018-07-01T02:18:25.990Z,0.00
2018-07-01T02:19:25.948Z,0.00
2018-07-01T02:20:25.911Z,0.00
2018-07-01T02:21:25.871Z,0.00
2018-07-01T02:22:25.826Z,0.00
2018-07-01T02:23:25.787Z,0.00
2018-07-01T02:24:25.741Z,0.00
2018-07-01T02:25:25.699Z,0.00
2018-07-01T02:26:25.656Z,0.00
2018-07-01T02:27:25.623Z,0.00
2018-07-01T02:28:25.573Z,0.00
2018-07-01T02:29:25.540Z,0.00
2018-07-01T02:30:25.493Z,0.00
2018-07-01T02:31:25.457Z,0.00
2018-07-01T02:32:25.408Z,0.00
2018-07-01T02:33:25.365Z,0.00
2018-07-01T02:34:25.323Z,0.00
2018-07-01T02:35:25.410Z,0.00
2018-07-01T02:36:25.239Z,0.00
2018-07-01T02:37:25.199Z,0.00
2018-07-01T02:38:25.159Z,0.00
2018-07-01T02:39:25.114Z,0.00
2018-07-01T02:40:25.074Z,0.00
2018-07-01T02:41:25.031Z,0.00
2018-07-01T02:42:24.990Z,0.00
2018-07-01T02:43:24.949Z,0.00
2018-07-01T02:44:24.908Z,4.00
2018-07-01T02:45:24.864Z,4.00
2018-07-01T02:46:24.828Z,0.00
2018-07-01T02:47:24.780Z,0.00
2018-07-01T02:48:24.741Z,4.00
2018-07-01T02:49:24.696Z,4.00
2018-07-01T02:50:24.656Z,0.00
2018-07-01T02:51:24.616Z,4.00
2018-07-01T02:52:24.573Z,4.00
2018-07-01T02:53:25.044Z,4.00
2018-07-01T02:54:24.496Z,4.00
2018-07-01T02:55:24.448Z,4.00
2018-07-01T02:56:24.406Z,8.00
2018-07-01T02:57:24.363Z,8.00
2018-07-01T02:58:24.321Z,12.00
2018-07-01T02:59:24.278Z,12.00
2018-07-01T03:00:24.238Z,12.00
2018-07-01T03:01:24.201Z,12.00
2018-07-01T03:02:24.158Z,12.00
2018-07-01T03:03:24.112Z,16.00
2018-07-01T03:04:24.069Z,16.00
2018-07-01T03:05:24.030Z,20.00
2018-07-01T03:06:23.994Z,24.00
2018-07-01T03:07:23.949Z,24.00
2018-07-01T03:08:23.907Z,28.00
2018-07-01T03:09:23.864Z,28.00
2018-07-01T03:10:23.822Z,36.00
2018-07-01T03:11:23.777Z,36.00
2018-07-01T03:12:23.738Z,40.00
2018-07-01T03:13:23.696Z,48.00
2018-07-01T03:14:23.654Z,52.00
2018-07-01T03:15:23.609Z,56.00
2018-07-01T03:16:23.571Z,60.00
2018-07-01T03:17:23.528Z,64.00
2018-07-01T03:18:23.486Z,68.00
2018-07-01T03:19:23.443Z,76.00
2018-07-01T03:20:23.404Z,80.00
2018-07-01T03:21:23.361Z,88.00
2018-07-01T03:22:23.320Z,92.00
2018-07-01T03:23:23.274Z,100.00
2018-07-01T03:24:23.233Z,104.00
2018-07-01T03:25:23.191Z,116.00
2018-07-01T03:26:23.150Z,120.00
2018-07-01T03:27:23.109Z,132.00
2018-07-01T03:28:23.065Z,136.00
2018-07-01T03:29:23.027Z,144.00
2018-07-01T03:30:22.999Z,152.00
2018-07-01T03:31:22.946Z,164.00
2018-07-01T03:32:22.898Z,168.00
2018-07-01T03:33:22.856Z,176.00
2018-07-01T03:34:22.815Z,192.00
2018-07-01T03:35:22.771Z,196.00
2018-07-01T03:36:22.729Z,208.00
2018-07-01T03:37:22.688Z,216.00
2018-07-01T03:38:22.652Z,224.00
2018-07-01T03:39:22.603Z,236.00
2018-07-01T03:40:22.563Z,244.00
2018-07-01T03:41:22.519Z,256.00
2018-07-01T03:42:22.477Z,264.00
2018-07-01T03:43:22.442Z,272.00
2018-07-01T03:44:22.397Z,284.00
2018-07-01T03:45:22.352Z,292.00
2018-07-01T03:46:22.312Z,300.00
2018-07-01T03:47:22.268Z,312.00
2018-07-01T03:48:22.228Z,324.00
2018-07-01T03:49:22.184Z,328.00
2018-07-01T03:50:22.142Z,340.00
2018-07-01T03:51:22.100Z,348.00
2018-07-01T03:52:22.057Z,360.00
2018-07-01T03:53:22.017Z,368.00
2018-07-01T03:54:21.973Z,380.00
2018-07-01T03:55:21.931Z,388.00
2018-07-01T03:56:21.892Z,396.00
2018-07-01T03:57:21.846Z,404.00
2018-07-01T03:58:21.805Z,416.00
2018-07-01T03:59:21.762Z,424.00
2018-07-01T04:00:21.726Z,436.00
2018-07-01T04:01:21.678Z,440.00
2018-07-01T04:02:21.638Z,452.00
2018-07-01T04:03:21.595Z,460.00
2018-07-01T04:04:21.558Z,468.00
2018-07-01T04:05:21.511Z,476.00
2018-07-01T04:06:21.474Z,484.00
2018-07-01T04:07:21.428Z,496.00
2018-07-01T04:08:21.385Z,500.00
2018-07-01T04:09:21.343Z,508.00
2018-07-01T04:10:21.303Z,516.00
2018-07-01T04:11:21.262Z,524.00
2018-07-01T04:12:21.215Z,532.00
2018-07-01T04:13:21.177Z,540.00
2018-07-01T04:14:21.130Z,544.00
2018-07-01T04:15:21.089Z,552.00
2018-07-01T04:16:21.049Z,560.00
2018-07-01T04:17:21.006Z,568.00
2018-07-01T04:18:20.962Z,572.00
2018-07-01T04:19:20.920Z,580.00
2018-07-01T04:20:20.876Z,588.00
2018-07-01T04:21:20.837Z,592.00
2018-07-01T04:22:20.793Z,596.00
2018-07-01T04:23:20.750Z,604.00
2018-07-01T04:24:20.712Z,612.00
2018-07-01T04:25:20.667Z,620.00
2018-07-01T04:26:20.625Z,620.00
2018-07-01T04:27:20.582Z,624.00
2018-07-01T04:28:20.543Z,636.00
2018-07-01T04:29:20.502Z,636.00
2018-07-01T04:30:20.455Z,640.00
2018-07-01T04:31:20.413Z,648.00
2018-07-01T04:32:20.374Z,652.00
2018-07-01T04:33:20.328Z,656.00
2018-07-01T04:34:20.295Z,664.00
2018-07-01T04:35:20.244Z,668.00
2018-07-01T04:36:20.202Z,672.00
2018-07-01T04:37:20.160Z,676.00
2018-07-01T04:38:20.121Z,680.00
2018-07-01T04:39:20.076Z,688.00
2018-07-01T04:40:20.033Z,688.00
2018-07-01T04:41:19.991Z,696.00
2018-07-01T04:42:19.954Z,696.00
2018-07-01T04:43:19.907Z,708.00
2018-07-01T04:44:19.865Z,708.00
2018-07-01T04:45:19.823Z,708.00
2018-07-01T04:46:19.783Z,720.00
2018-07-01T04:47:19.737Z,720.00
2018-07-01T04:48:19.696Z,724.00
2018-07-01T04:49:19.703Z,728.00
2018-07-01T04:50:19.610Z,736.00
2018-07-01T04:51:19.568Z,740.00
2018-07-01T04:52:19.526Z,748.00
2018-07-01T04:53:19.485Z,752.00
2018-07-01T04:54:19.443Z,752.00
2018-07-01T04:55:19.416Z,752.00
2018-07-01T04:56:19.361Z,764.00
2018-07-01T04:57:19.317Z,764.00
2018-07-01T04:58:19.273Z,768.00
2018-07-01T04:59:19.235Z,772.00
2018-07-01T05:00:19.193Z,776.00
2018-07-01T05:01:19.149Z,780.00
2018-07-01T05:02:19.132Z,780.00
2018-07-01T05:03:19.066Z,784.00
2018-07-01T05:04:19.024Z,796.00
2018-07-01T05:05:18.982Z,792.00
2018-07-01T05:06:18.938Z,796.00
2018-07-01T05:07:18.900Z,796.00
2018-07-01T05:08:18.860Z,800.00
2018-07-01T05:09:18.822Z,804.00
2018-07-01T05:10:18.770Z,816.00
2018-07-01T05:11:18.725Z,812.00
2018-07-01T05:12:18.682Z,820.00
2018-07-01T05:13:18.642Z,820.00
2018-07-01T05:14:18.599Z,832.00
2018-07-01T05:15:18.559Z,828.00
2018-07-01T05:16:18.518Z,832.00
2018-07-01T05:17:18.485Z,840.00
2018-07-01T05:18:18.435Z,844.00
2018-07-01T05:19:18.387Z,844.00
2018-07-01T05:20:18.346Z,856.00
2018-07-01T05:21:18.304Z,860.00
2018-07-01T05:22:18.261Z,860.00
2018-07-01T05:23:18.220Z,868.00
2018-07-01T05:24:18.177Z,872.00
2018-07-01T05:25:18.137Z,884.00
2018-07-01T05:26:18.095Z,880.00
2018-07-01T05:27:18.051Z,888.00
2018-07-01T05:28:18.015Z,884.00
2018-07-01T05:29:17.970Z,896.00
2018-07-01T05:30:17.926Z,896.00
2018-07-01T05:31:17.888Z,900.00
2018-07-01T05:32:17.841Z,900.00
2018-07-01T05:33:17.799Z,904.00
2018-07-01T05:34:17.760Z,904.00
2018-07-01T05:35:17.718Z,912.00
2018-07-01T05:36:17.674Z,916.00
2018-07-01T05:37:17.632Z,916.00
2018-07-01T05:38:17.588Z,924.00
2018-07-01T05:39:17.547Z,924.00
2018-07-01T05:40:17.508Z,932.00
2018-07-01T05:41:17.465Z,932.00
2018-07-01T05:42:17.423Z,936.00
2018-07-01T05:43:17.382Z,940.00
2018-07-01T05:44:17.338Z,944.00
2018-07-01T05:45:17.297Z,948.00
2018-07-01T05:46:17.254Z,952.00
2018-07-01T05:47:17.216Z,960.00
2018-07-01T05:48:17.170Z,956.00
2018-07-01T05:49:17.149Z,960.00
2018-07-01T05:50:17.094Z,960.00
2018-07-01T05:51:17.044Z,968.00
2018-07-01T05:52:17.003Z,968.00
2018-07-01T05:53:16.961Z,968.00
2018-07-01T05:54:16.919Z,972.00
2018-07-01T05:55:16.880Z,976.00
2018-07-01T05:56:16.836Z,980.00
2018-07-01T05:57:16.794Z,984.00
2018-07-01T05:58:16.757Z,988.00
2018-07-01T05:59:16.709Z,992.00
2018-07-01T06:00:16.668Z,992.00
2018-07-01T06:01:16.626Z,992.00
2018-07-01T06:02:16.591Z,1000.00
2018-07-01T06:03:16.549Z,1012.00
2018-07-01T06:04:16.505Z,1000.00
2018-07-01T06:05:16.463Z,1000.00
2018-07-01T06:06:16.427Z,1008.00
2018-07-01T06:07:16.381Z,1004.00
2018-07-01T06:08:16.337Z,1012.00
2018-07-01T06:09:16.306Z,1012.00
2018-07-01T06:10:16.253Z,1016.00
2018-07-01T06:11:16.212Z,1012.00
2018-07-01T06:12:16.171Z,1016.00
2018-07-01T06:13:16.129Z,1024.00
2018-07-01T06:14:16.089Z,1024.00
2018-07-01T06:15:16.057Z,1028.00
2018-07-01T06:16:16.005Z,1024.00
2018-07-01T06:17:15.973Z,1028.00
2018-07-01T06:18:15.926Z,1032.00
2018-07-01T06:19:15.879Z,1032.00
2018-07-01T06:20:15.839Z,1040.00
2018-07-01T06:21:15.799Z,1044.00
2018-07-01T06:22:15.755Z,1048.00
2018-07-01T06:23:15.720Z,1048.00
2018-07-01T06:24:15.673Z,1048.00
2018-07-01T06:25:15.634Z,1052.00
2018-07-01T06:26:15.590Z,1064.00
2018-07-01T06:27:15.554Z,1064.00
2018-07-01T06:28:15.508Z,1064.00
2018-07-01T06:29:15.465Z,1076.00
2018-07-01T06:30:15.429Z,1072.00
2018-07-01T06:31:15.381Z,1072.00
2018-07-01T06:32:15.341Z,1080.00
2018-07-01T06:33:15.301Z,1084.00
2018-07-01T06:34:15.261Z,1096.00
2018-07-01T06:35:15.226Z,1084.00
2018-07-01T06:36:15.175Z,1092.00
2018-07-01T06:37:15.134Z,1096.00
2018-07-01T06:38:15.099Z,1104.00
2018-07-01T06:39:15.060Z,1100.00
2018-07-01T06:40:15.018Z,1108.00
2018-07-01T06:41:14.975Z,1112.00
2018-07-01T06:42:14.936Z,1108.00
2018-07-01T06:43:14.894Z,1112.00
2018-07-01T06:44:14.849Z,1120.00
2018-07-01T06:45:14.806Z,1120.00
2018-07-01T06:46:14.766Z,1120.00
2018-07-01T06:47:14.724Z,1124.00
2018-07-01T06:48:14.698Z,1128.00
2018-07-01T06:49:14.648Z,1132.00
2018-07-01T06:50:14.603Z,1136.00
2018-07-01T06:51:14.560Z,1140.00
2018-07-01T06:52:14.518Z,1144.00
2018-07-01T06:53:14.479Z,1156.00
2018-07-01T06:54:14.437Z,1156.00
2018-07-01T06:55:14.400Z,1164.00
2018-07-01T06:56:14.356Z,1164.00
2018-07-01T06:57:14.314Z,1180.00
2018-07-01T06:58:14.274Z,1172.00
2018-07-01T06:59:14.235Z,1184.00
2018-07-01T07:00:14.194Z,1184.00
2018-07-01T07:01:14.152Z,1196.00
2018-07-01T07:02:14.112Z,1196.00
2018-07-01T07:03:14.078Z,1208.00
2018-07-01T07:04:14.036Z,1216.00
2018-07-01T07:05:13.989Z,1220.00
2018-07-01T07:06:13.953Z,1236.00
2018-07-01T07:07:13.907Z,1252.00
2018-07-01T07:08:13.867Z,1248.00
2018-07-01T07:09:13.827Z,1260.00
2018-07-01T07:10:13.786Z,1268.00
2018-07-01T07:11:13.745Z,1276.00
2018-07-01T07:12:13.707Z,1292.00
2018-07-01T07:13:13.664Z,1292.00
2018-07-01T07:14:13.627Z,1300.00
2018-07-01T07:15:13.585Z,1300.00
2018-07-01T07:16:13.565Z,1308.00
2018-07-01T07:17:13.503Z,1312.00
2018-07-01T07:18:13.465Z,1320.00
2018-07-01T07:19:13.423Z,1332.00
2018-07-01T07:20:13.382Z,1336.00
2018-07-01T07:21:13.343Z,1344.00
2018-07-01T07:22:13.303Z,1352.00
2018-07-01T07:23:13.263Z,1356.00
2018-07-01T07:24:13.220Z,1364.00
2018-07-01T07:25:13.184Z,1364.00
2018-07-01T07:26:13.146Z,1372.00
2018-07-01T07:27:13.099Z,1396.00
2018-07-01T07:28:13.068Z,1380.00
2018-07-01T07:29:13.021Z,1392.00
2018-07-01T07:30:12.979Z,1404.00
2018-07-01T07:31:12.940Z,1408.00
2018-07-01T07:32:12.900Z,1412.00
2018-07-01T07:33:12.860Z,1416.00
2018-07-01T07:34:12.820Z,1424.00
2018-07-01T07:35:12.780Z,1440.00
2018-07-01T07:36:12.739Z,1448.00
2018-07-01T07:37:12.699Z,1464.00
2018-07-01T07:38:12.662Z,1468.00
2018-07-01T07:39:12.619Z,1476.00
2018-07-01T07:40:12.581Z,1488.00
2018-07-01T07:41:12.539Z,1496.00
2018-07-01T07:42:12.501Z,1512.00
2018-07-01T07:43:12.458Z,1516.00
2018-07-01T07:44:12.424Z,1532.00
2018-07-01T07:45:12.439Z,1536.00
2018-07-01T07:46:12.340Z,1552.00
2018-07-01T07:47:12.299Z,1548.00
2018-07-01T07:48:12.263Z,1552.00
2018-07-01T07:49:12.220Z,1572.00
2018-07-01T07:50:12.186Z,1576.00
2018-07-01T07:51:12.143Z,1596.00
2018-07-01T07:52:12.175Z,1592.00
2018-07-01T07:53:12.061Z,1600.00
2018-07-01T07:54:12.025Z,1612.00
2018-07-01T07:55:11.984Z,1624.00
2018-07-01T07:56:11.943Z,1636.00
2018-07-01T07:57:11.910Z,1648.00
2018-07-01T07:58:11.868Z,1668.00
2018-07-01T07:59:11.825Z,1680.00
2018-07-01T08:00:11.784Z,1692.00
2018-07-01T08:01:11.746Z,1708.00
2018-07-01T08:02:11.708Z,1720.00
2018-07-01T08:03:11.666Z,1732.00
2018-07-01T08:04:11.626Z,1744.00
2018-07-01T08:07:11.513Z,1780.00
2018-07-01T08:08:11.479Z,1800.00
2018-07-01T08:10:11.391Z,1820.00
2018-07-01T08:11:11.350Z,1824.00
2018-07-01T08:12:11.314Z,1836.00
2018-07-01T08:13:11.327Z,1852.00
2018-07-01T08:14:11.233Z,1892.00
2018-07-01T08:15:11.199Z,1880.00
2018-07-01T08:16:11.159Z,1896.00
2018-07-01T08:17:11.121Z,1916.00
2018-07-01T08:18:11.086Z,1928.00
2018-07-01T08:19:11.038Z,1936.00
2018-07-01T08:20:10.999Z,1948.00
2018-07-01T08:21:10.963Z,1964.00
2018-07-01T08:22:10.921Z,1948.00
2018-07-01T08:23:10.884Z,1956.00
2018-07-01T08:24:10.845Z,1976.00
2018-07-01T08:25:10.812Z,1992.00
2018-07-01T08:26:10.765Z,2004.00
2018-07-01T08:27:10.727Z,2016.00
2018-07-01T08:28:10.689Z,2024.00
2018-07-01T08:29:10.654Z,2036.00
2018-07-01T08:30:10.613Z,2056.00
2018-07-01T08:31:10.572Z,2072.00
2018-07-01T08:32:10.536Z,2072.00
2018-07-01T08:33:10.500Z,2092.00
2018-07-01T08:34:10.460Z,2100.00
2018-07-01T08:35:10.421Z,2112.00
2018-07-01T08:36:10.381Z,2132.00
2018-07-01T08:37:10.344Z,2128.00
2018-07-01T08:38:10.309Z,2152.00
2018-07-01T08:39:10.267Z,2164.00
2018-07-01T08:40:10.291Z,2176.00
2018-07-01T08:41:10.193Z,2176.00
2018-07-01T08:42:10.154Z,2192.00
2018-07-01T08:43:10.113Z,2200.00
2018-07-01T08:44:10.075Z,2224.00
2018-07-01T08:45:10.046Z,2220.00
2018-07-01T08:46:10.068Z,2228.00
2018-07-01T08:47:09.964Z,2240.00
2018-07-01T08:48:09.925Z,2252.00
2018-07-01T08:49:09.888Z,2252.00
2018-07-01T08:50:09.850Z,2256.00
2018-07-01T08:51:09.814Z,2264.00
2018-07-01T08:52:09.772Z,2284.00
2018-07-01T08:53:09.736Z,2300.00
2018-07-01T08:54:09.704Z,2284.00
2018-07-01T08:55:09.665Z,2308.00
2018-07-01T08:56:09.623Z,2312.00
2018-07-01T08:57:09.584Z,2332.00
2018-07-01T08:58:09.551Z,2320.00
2018-07-01T08:59:09.511Z,2344.00
2018-07-01T09:00:09.474Z,2352.00
2018-07-01T09:01:09.439Z,2352.00
2018-07-01T09:02:09.399Z,2368.00
2018-07-01T09:03:09.364Z,2376.00
2018-07-01T09:04:09.328Z,2396.00
2018-07-01T09:05:09.290Z,2404.00
2018-07-01T09:06:09.251Z,2416.00
2018-07-01T09:07:09.211Z,2396.00
2018-07-01T09:08:09.176Z,2400.00
2018-07-01T09:09:09.139Z,2420.00
2018-07-01T09:10:09.101Z,2440.00
2018-07-01T09:11:09.063Z,2436.00
2018-07-01T09:12:09.027Z,2512.00
2018-07-01T09:13:09.089Z,2520.00
2018-07-01T09:14:08.954Z,2500.00
2018-07-01T09:15:08.915Z,2504.00
2018-07-01T09:16:08.879Z,2520.00
2018-07-01T09:17:08.870Z,2528.00
2018-07-01T09:18:08.806Z,2552.00
2018-07-01T09:19:08.766Z,2552.00
2018-07-01T09:20:08.730Z,2560.00
2018-07-01T09:21:08.692Z,2592.00
2018-07-01T09:22:08.656Z,2584.00
2018-07-01T09:23:08.619Z,2588.00
2018-07-01T09:24:08.584Z,2604.00
2018-07-01T09:25:08.551Z,2608.00
2018-07-01T09:26:08.508Z,2616.00
2018-07-01T09:27:08.473Z,2628.00
2018-07-01T09:28:08.435Z,2644.00
2018-07-01T09:29:08.400Z,2648.00
2018-07-01T09:30:08.369Z,2664.00
2018-07-01T09:31:08.323Z,2664.00
2018-07-01T09:32:08.288Z,2680.00
2018-07-01T09:33:08.252Z,2692.00
2018-07-01T09:34:08.216Z,2700.00
2018-07-01T09:35:08.177Z,2704.00
2018-07-01T09:36:08.156Z,2716.00
2018-07-01T09:37:08.111Z,2740.00
2018-07-01T09:38:08.069Z,2732.00
2018-07-01T09:39:08.035Z,2748.00
2018-07-01T09:40:07.997Z,2700.00
2018-07-01T09:41:07.960Z,2700.00
2018-07-01T09:42:07.923Z,2712.00
2018-07-01T09:43:07.886Z,2724.00
2018-07-01T09:44:07.853Z,2728.00
2018-07-01T09:45:07.815Z,2748.00
2018-07-01T09:46:07.778Z,2764.00
2018-07-01T09:47:07.746Z,2776.00
2018-07-01T09:48:07.741Z,2784.00
2018-07-01T09:49:07.673Z,2808.00
2018-07-01T09:50:07.632Z,2820.00
2018-07-01T09:51:07.595Z,2832.00
2018-07-01T09:52:07.564Z,2832.00
2018-07-01T09:53:07.526Z,2852.00
2018-07-01T09:54:07.491Z,2868.00
2018-07-01T09:55:07.454Z,2872.00
2018-07-01T09:56:07.413Z,2884.00
2018-07-01T09:57:07.378Z,2896.00
2018-07-01T09:58:07.341Z,2928.00
2018-07-01T09:59:07.305Z,2960.00
2018-07-01T10:00:07.304Z,2936.00
2018-07-01T10:01:07.311Z,2948.00
2018-07-01T10:02:07.196Z,2960.00
2018-07-01T10:03:07.166Z,2972.00
2018-07-01T10:04:07.124Z,2984.00
2018-07-01T10:05:07.094Z,3000.00
2018-07-01T10:06:07.059Z,3012.00
2018-07-01T10:07:07.031Z,3016.00
2018-07-01T10:08:07.036Z,3028.00
2018-07-01T10:09:07.039Z,3040.00
2018-07-01T10:10:06.919Z,3052.00
2018-07-01T10:11:06.916Z,3076.00
2018-07-01T10:12:07.023Z,3104.00
2018-07-01T10:13:06.913Z,3108.00
2018-07-01T10:14:06.797Z,3108.00
2018-07-01T10:15:06.795Z,3124.00
2018-07-01T10:16:06.795Z,3136.00
2018-07-01T10:17:06.677Z,3144.00
2018-07-01T10:18:06.677Z,3160.00
2018-07-01T10:19:06.673Z,3176.00
2018-07-01T10:20:06.554Z,3164.00
2018-07-01T10:21:06.552Z,3204.00
2018-07-01T10:22:06.552Z,3216.00
2018-07-01T10:23:06.557Z,3216.00
2018-07-01T10:24:06.432Z,3224.00
2018-07-01T10:25:06.435Z,3244.00
2018-07-01T10:26:06.496Z,3260.00
2018-07-01T10:27:06.312Z,3260.00
2018-07-01T10:28:06.313Z,2784.00
2018-07-01T10:29:06.312Z,2788.00
2018-07-01T10:30:06.311Z,2804.00
2018-07-01T10:32:06.190Z,2824.00
2018-07-01T10:33:06.191Z,2836.00
2018-07-01T10:34:06.070Z,2844.00
2018-07-01T10:35:06.069Z,2852.00
2018-07-01T10:36:06.075Z,2856.00
2018-07-01T10:37:05.950Z,2876.00
2018-07-01T10:38:05.971Z,2880.00
2018-07-01T10:39:05.953Z,2888.00
2018-07-01T10:40:05.990Z,2904.00
2018-07-01T10:41:05.828Z,2916.00
2018-07-01T10:42:05.829Z,2920.00
2018-07-01T10:43:05.828Z,2936.00
2018-07-01T10:44:05.707Z,2940.00
2018-07-01T10:45:05.708Z,2948.00
2018-07-01T10:46:05.707Z,2968.00
2018-07-01T10:47:05.707Z,2964.00
2018-07-01T10:48:05.591Z,2976.00
2018-07-01T10:49:05.586Z,2988.00
2018-07-01T10:50:05.590Z,3004.00
2018-07-01T10:51:05.467Z,3012.00
2018-07-01T10:52:05.467Z,3028.00
2018-07-01T10:53:05.470Z,3032.00
2018-07-01T10:54:05.469Z,3044.00
2018-07-01T10:55:05.350Z,3052.00
2018-07-01T10:56:05.346Z,3064.00
2018-07-01T10:57:05.343Z,3068.00
2018-07-01T10:58:05.225Z,3076.00
2018-07-01T10:59:05.224Z,3084.00
2018-07-01T11:00:05.222Z,3112.00
2018-07-01T11:01:05.225Z,3112.00
2018-07-01T11:02:05.104Z,3120.00
2018-07-01T11:03:05.109Z,3124.00
2018-07-01T11:04:05.106Z,3144.00
2018-07-01T11:05:04.981Z,3148.00
2018-07-01T11:06:05.036Z,3192.00
2018-07-01T11:07:04.982Z,3192.00
2018-07-01T11:08:04.981Z,3216.00
2018-07-01T11:09:04.861Z,3220.00
2018-07-01T11:10:04.868Z,3228.00
2018-07-01T11:11:04.863Z,3240.00
2018-07-01T11:12:04.741Z,3240.00
2018-07-01T11:13:04.741Z,3244.00
2018-07-01T11:14:04.743Z,3248.00
2018-07-01T11:15:04.742Z,3248.00
2018-07-01T11:16:04.620Z,3300.00
2018-07-01T11:17:04.621Z,3276.00
2018-07-01T11:18:04.618Z,3280.00
2018-07-01T11:19:04.499Z,3288.00
2018-07-01T11:20:04.497Z,3316.00
2018-07-01T11:21:04.497Z,3320.00
2018-07-01T11:22:04.496Z,3328.00
2018-07-01T11:23:04.380Z,3348.00
2018-07-01T11:24:04.377Z,3348.00
2018-07-01T11:25:04.379Z,3348.00
2018-07-01T11:26:04.345Z,3368.00
2018-07-01T11:27:04.492Z,3368.00
2018-07-01T11:28:04.257Z,3388.00
2018-07-01T11:29:04.259Z,3400.00
2018-07-01T11:30:04.136Z,3412.00
2018-07-01T11:31:04.135Z,3424.00
2018-07-01T11:32:04.136Z,3444.00
2018-07-01T11:33:04.134Z,3472.00
2018-07-01T11:34:04.015Z,3468.00
2018-07-01T11:35:04.059Z,3504.00
2018-07-01T11:36:04.013Z,3584.00
2018-07-01T11:37:03.894Z,3676.00
2018-07-01T11:38:03.947Z,3656.00
2018-07-01T11:39:03.894Z,3692.00
2018-07-01T11:40:03.892Z,3780.00
2018-07-01T11:41:03.772Z,3720.00
2018-07-01T11:42:03.773Z,3656.00
2018-07-01T11:43:03.772Z,3544.00
2018-07-01T11:44:03.651Z,3572.00
2018-07-01T11:45:03.654Z,3648.00
2018-07-01T11:46:03.653Z,3576.00
2018-07-01T11:47:03.651Z,3564.00
2018-07-01T11:48:03.531Z,3592.00
2018-07-01T11:49:03.535Z,3616.00
2018-07-01T11:50:03.529Z,3616.00
2018-07-01T11:51:03.531Z,3640.00
2018-07-01T11:52:03.422Z,3652.00
2018-07-01T11:53:03.410Z,3696.00
2018-07-01T11:54:03.409Z,3688.00
2018-07-01T11:55:03.289Z,3720.00
2018-07-01T11:56:03.287Z,3756.00
2018-07-01T11:57:03.288Z,3800.00
2018-07-01T11:58:03.292Z,3820.00
2018-07-01T11:59:03.169Z,3848.00
2018-07-01T12:00:03.180Z,3840.00
2018-07-01T12:01:03.169Z,3884.00
2018-07-01T12:02:03.126Z,3944.00
2018-07-01T12:03:03.049Z,4000.00
2018-07-01T12:04:03.049Z,4052.00
2018-07-01T12:05:16.205Z,4180.00
2018-07-01T12:06:02.927Z,4232.00
2018-07-01T12:07:02.931Z,4360.00
2018-07-01T12:08:02.930Z,4588.00
2018-07-01T12:09:03.004Z,4784.00
2018-07-01T12:10:02.806Z,4976.00
2018-07-01T12:11:02.805Z,5036.00
2018-07-01T12:12:02.879Z,5100.00
2018-07-01T12:13:02.684Z,5168.00
2018-07-01T12:14:02.686Z,5228.00
2018-07-01T12:15:02.684Z,5304.00
2018-07-01T12:16:02.685Z,5360.00
2018-07-01T12:17:02.565Z,5428.00
2018-07-01T12:18:02.575Z,5512.00
2018-07-01T12:19:02.565Z,5568.00
2018-07-01T12:20:02.564Z,5580.00
2018-07-01T12:21:02.442Z,5664.00
2018-07-01T12:22:02.445Z,5684.00
2018-07-01T12:23:02.442Z,5628.00
2018-07-01T12:24:02.400Z,5656.00
2018-07-01T12:25:02.322Z,5800.00
2018-07-01T12:26:02.322Z,5768.00
2018-07-01T12:27:02.328Z,5748.00
2018-07-01T12:28:02.206Z,5800.00
2018-07-01T12:29:02.199Z,5792.00
2018-07-01T12:30:02.200Z,5844.00
2018-07-01T12:31:02.202Z,5896.00
2018-07-01T12:32:02.086Z,5896.00